sensor_id;sensor_type;location;lat;lon;timestamp;pressure;altitude;pressure_sealevel;temperature;humidity
60019;BME280;45870;42.528;26.740;2023-06-26T00:00:14;99157.03;;;29.18;47.38
60019;BME280;45870;42.528;26.740;2023-06-26T00:02:40;99173.97;;;29.33;47.14
60019;BME280;45870;42.528;26.740;2023-06-26T00:05:06;99162.13;;;29.36;47.36
60019;BME280;45870;42.528;26.740;2023-06-26T00:07:32;99164.78;;;29.29;47.09
60019;BME280;45870;42.528;26.740;2023-06-26T00:10:02;99158.00;;;29.26;47.50
60019;BME280;45870;42.528;26.740;2023-06-26T00:12:28;99159.66;;;29.31;47.42
60019;BME280;45870;42.528;26.740;2023-06-26T00:14:54;99161.53;;;29.49;46.87
60019;BME280;45870;42.528;26.740;2023-06-26T00:17:20;99163.59;;;29.30;46.94
60019;BME280;45870;42.528;26.740;2023-06-26T00:19:46;99073.94;;;28.68;47.33
60019;BME280;45870;42.528;26.740;2023-06-26T00:22:11;99110.63;;;29.00;47.12
60019;BME280;45870;42.528;26.740;2023-06-26T00:24:37;99147.84;;;29.37;47.21
60019;BME280;45870;42.528;26.740;2023-06-26T00:27:03;99155.22;;;29.52;46.66
60019;BME280;45870;42.528;26.740;2023-06-26T00:29:28;99160.38;;;29.27;47.03
60019;BME280;45870;42.528;26.740;2023-06-26T00:31:54;99155.19;;;28.26;49.71
60019;BME280;45870;42.528;26.740;2023-06-26T00:34:19;99141.31;;;28.07;50.44
60019;BME280;45870;42.528;26.740;2023-06-26T00:36:45;99151.44;;;28.73;49.15
60019;BME280;45870;42.528;26.740;2023-06-26T00:39:11;99145.69;;;27.11;53.32
60019;BME280;45870;42.528;26.740;2023-06-26T00:41:37;99098.50;;;27.23;52.10
60019;BME280;45870;42.528;26.740;2023-06-26T00:44:04;99135.41;;;28.09;51.18
60019;BME280;45870;42.528;26.740;2023-06-26T00:46:30;99138.41;;;28.77;49.37
60019;BME280;45870;42.528;26.740;2023-06-26T00:48:59;99140.97;;;29.08;48.60
60019;BME280;45870;42.528;26.740;2023-06-26T00:51:27;99148.00;;;29.02;48.59
60019;BME280;45870;42.528;26.740;2023-06-26T00:53:54;99142.03;;;29.46;47.10
60019;BME280;45870;42.528;26.740;2023-06-26T00:56:20;99129.47;;;29.55;46.90
60019;BME280;45870;42.528;26.740;2023-06-26T00:58:46;99108.13;;;28.91;48.80
60019;BME280;45870;42.528;26.740;2023-06-26T01:01:12;99131.41;;;29.29;48.11
60019;BME280;45870;42.528;26.740;2023-06-26T01:03:46;99125.91;;;29.09;48.12
60019;BME280;45870;42.528;26.740;2023-06-26T01:06:17;99124.88;;;29.40;47.48
60019;BME280;45870;42.528;26.740;2023-06-26T01:08:44;99118.03;;;29.60;47.09
60019;BME280;45870;42.528;26.740;2023-06-26T01:11:10;99113.38;;;29.68;47.06
60019;BME280;45870;42.528;26.740;2023-06-26T01:13:36;99111.16;;;29.81;46.61
60019;BME280;45870;42.528;26.740;2023-06-26T01:16:03;99113.34;;;29.91;46.53
60019;BME280;45870;42.528;26.740;2023-06-26T01:18:30;99117.84;;;29.50;47.16
60019;BME280;45870;42.528;26.740;2023-06-26T01:20:57;99079.25;;;29.22;47.40
60019;BME280;45870;42.528;26.740;2023-06-26T01:23:38;99114.09;;;29.39;47.80
60019;BME280;45870;42.528;26.740;2023-06-26T01:26:22;99110.84;;;29.33;47.62
60019;BME280;45870;42.528;26.740;2023-06-26T01:28:50;99114.22;;;29.00;48.07
60019;BME280;45870;42.528;26.740;2023-06-26T01:31:17;99113.81;;;28.98;48.10
60019;BME280;45870;42.528;26.740;2023-06-26T01:33:43;99120.78;;;28.50;49.52
60019;BME280;45870;42.528;26.740;2023-06-26T01:36:10;99114.94;;;28.36;50.18
60019;BME280;45870;42.528;26.740;2023-06-26T01:38:36;99113.78;;;28.37;50.52
60019;BME280;45870;42.528;26.740;2023-06-26T01:41:02;99109.47;;;28.59;50.12
60019;BME280;45870;42.528;26.740;2023-06-26T01:44:07;99108.19;;;28.95;49.21
60019;BME280;45870;42.528;26.740;2023-06-26T01:49:24;99109.19;;;29.29;48.17
60019;BME280;45870;42.528;26.740;2023-06-26T01:52:00;99094.59;;;29.12;48.28
60019;BME280;45870;42.528;26.740;2023-06-26T01:54:30;99111.06;;;29.24;48.42
60019;BME280;45870;42.528;26.740;2023-06-26T01:56:59;99110.25;;;29.47;47.80
60019;BME280;45870;42.528;26.740;2023-06-26T01:59:28;99109.50;;;29.50;47.90
60019;BME280;45870;42.528;26.740;2023-06-26T02:01:56;99109.84;;;29.45;48.14
60019;BME280;45870;42.528;26.740;2023-06-26T02:04:21;99086.00;;;29.44;47.84
60019;BME280;45870;42.528;26.740;2023-06-26T02:06:47;99082.41;;;29.20;48.38
60019;BME280;45870;42.528;26.740;2023-06-26T02:09:12;99090.44;;;29.25;48.37
60019;BME280;45870;42.528;26.740;2023-06-26T02:11:38;99091.09;;;28.32;50.28
60019;BME280;45870;42.528;26.740;2023-06-26T02:14:04;99086.81;;;27.99;51.51
60019;BME280;45870;42.528;26.740;2023-06-26T02:16:29;99095.84;;;28.92;49.30
60019;BME280;45870;42.528;26.740;2023-06-26T02:18:55;99092.75;;;28.97;48.93
60019;BME280;45870;42.528;26.740;2023-06-26T02:21:23;99082.38;;;28.94;48.68
60019;BME280;45870;42.528;26.740;2023-06-26T02:23:48;99096.19;;;29.36;47.85
60019;BME280;45870;42.528;26.740;2023-06-26T02:26:14;99050.69;;;28.15;49.85
60019;BME280;45870;42.528;26.740;2023-06-26T02:28:39;99094.63;;;28.51;50.11
60019;BME280;45870;42.528;26.740;2023-06-26T02:31:05;99088.72;;;28.95;49.12
60019;BME280;45870;42.528;26.740;2023-06-26T02:33:30;99093.09;;;29.18;48.77
60019;BME280;45870;42.528;26.740;2023-06-26T02:35:57;99068.19;;;29.25;47.96
60019;BME280;45870;42.528;26.740;2023-06-26T02:38:23;99084.59;;;29.57;47.51
60019;BME280;45870;42.528;26.740;2023-06-26T02:40:48;99088.50;;;29.52;47.68
60019;BME280;45870;42.528;26.740;2023-06-26T02:43:14;99090.09;;;29.53;47.85
60019;BME280;45870;42.528;26.740;2023-06-26T02:45:39;99088.66;;;29.63;47.41
60019;BME280;45870;42.528;26.740;2023-06-26T02:48:05;99090.09;;;29.53;47.97
60019;BME280;45870;42.528;26.740;2023-06-26T02:50:33;99094.06;;;29.52;47.91
60019;BME280;45870;42.528;26.740;2023-06-26T02:52:59;99092.84;;;29.50;48.44
60019;BME280;45870;42.528;26.740;2023-06-26T02:55:25;99092.84;;;29.76;47.76
60019;BME280;45870;42.528;26.740;2023-06-26T02:57:51;99089.88;;;29.92;47.47
60019;BME280;45870;42.528;26.740;2023-06-26T03:00:16;99081.22;;;29.97;46.92
60019;BME280;45870;42.528;26.740;2023-06-26T03:02:42;99093.94;;;30.28;46.40
60019;BME280;45870;42.528;26.740;2023-06-26T03:05:10;98946.72;;;29.56;46.15
60019;BME280;45870;42.528;26.740;2023-06-26T03:07:38;99090.72;;;30.59;46.16
60019;BME280;45870;42.528;26.740;2023-06-26T03:10:04;99094.47;;;30.40;46.39
60019;BME280;45870;42.528;26.740;2023-06-26T03:12:30;99065.72;;;29.69;47.37
60019;BME280;45870;42.528;26.740;2023-06-26T03:14:56;99099.31;;;30.13;47.59
60019;BME280;45870;42.528;26.740;2023-06-26T03:17:22;99098.53;;;30.43;46.74
60019;BME280;45870;42.528;26.740;2023-06-26T03:19:47;99100.50;;;30.79;45.63
60019;BME280;45870;42.528;26.740;2023-06-26T03:22:13;99094.84;;;31.09;45.41
60019;BME280;45870;42.528;26.740;2023-06-26T03:24:39;99092.78;;;31.02;45.67
60019;BME280;45870;42.528;26.740;2023-06-26T03:27:04;99102.00;;;31.06;44.95
60019;BME280;45870;42.528;26.740;2023-06-26T03:29:30;99064.38;;;30.90;45.41
60019;BME280;45870;42.528;26.740;2023-06-26T03:31:56;99104.00;;;31.09;44.73
60019;BME280;45870;42.528;26.740;2023-06-26T03:34:22;99103.28;;;31.16;44.54
60019;BME280;45870;42.528;26.740;2023-06-26T03:36:47;99105.34;;;30.86;45.21
60019;BME280;45870;42.528;26.740;2023-06-26T03:39:13;99103.97;;;30.69;45.25
60019;BME280;45870;42.528;26.740;2023-06-26T03:41:39;99103.00;;;29.65;46.56
60019;BME280;45870;42.528;26.740;2023-06-26T03:44:04;99102.16;;;30.47;45.23
60019;BME280;45870;42.528;26.740;2023-06-26T03:46:30;99098.44;;;30.39;45.62
60019;BME280;45870;42.528;26.740;2023-06-26T03:48:55;99099.78;;;29.63;47.48
60019;BME280;45870;42.528;26.740;2023-06-26T03:51:21;99106.72;;;29.50;47.37
60019;BME280;45870;42.528;26.740;2023-06-26T03:53:47;99109.69;;;30.16;46.09
60019;BME280;45870;42.528;26.740;2023-06-26T03:56:12;99106.75;;;30.69;45.06
60019;BME280;45870;42.528;26.740;2023-06-26T03:58:39;99070.09;;;30.63;44.19
60019;BME280;45870;42.528;26.740;2023-06-26T04:01:05;99084.97;;;30.41;43.77
60019;BME280;45870;42.528;26.740;2023-06-26T04:03:30;99102.75;;;31.00;43.56
60019;BME280;45870;42.528;26.740;2023-06-26T04:05:56;99066.03;;;29.91;44.51
60019;BME280;45870;42.528;26.740;2023-06-26T04:08:24;99112.56;;;29.41;46.90
60019;BME280;45870;42.528;26.740;2023-06-26T04:10:52;99108.38;;;30.07;45.73
60019;BME280;45870;42.528;26.740;2023-06-26T04:13:19;99084.28;;;30.51;45.14
60019;BME280;45870;42.528;26.740;2023-06-26T04:15:44;99116.34;;;29.82;46.34
60019;BME280;45870;42.528;26.740;2023-06-26T04:18:10;99118.59;;;29.47;48.30
60019;BME280;45870;42.528;26.740;2023-06-26T04:20:39;99115.41;;;29.97;46.77
60019;BME280;45870;42.528;26.740;2023-06-26T04:23:06;99125.28;;;29.19;48.75
60019;BME280;45870;42.528;26.740;2023-06-26T04:25:31;99123.00;;;28.60;50.78
60019;BME280;45870;42.528;26.740;2023-06-26T04:27:57;99117.00;;;29.00;49.96
60019;BME280;45870;42.528;26.740;2023-06-26T04:30:23;99119.84;;;28.62;51.07
60019;BME280;45870;42.528;26.740;2023-06-26T04:32:48;99114.91;;;28.71;50.78
60019;BME280;45870;42.528;26.740;2023-06-26T04:35:14;99124.88;;;28.75;50.69
60019;BME280;45870;42.528;26.740;2023-06-26T04:37:39;99118.88;;;27.97;53.34
60019;BME280;45870;42.528;26.740;2023-06-26T04:40:06;99091.00;;;29.12;48.28
60019;BME280;45870;42.528;26.740;2023-06-26T04:42:32;99124.03;;;30.48;46.36
60019;BME280;45870;42.528;26.740;2023-06-26T04:44:58;99132.53;;;31.40;44.02
60019;BME280;45870;42.528;26.740;2023-06-26T04:47:24;99133.41;;;31.47;43.18
60019;BME280;45870;42.528;26.740;2023-06-26T04:49:49;99128.59;;;32.02;42.89
60019;BME280;45870;42.528;26.740;2023-06-26T04:52:15;99135.81;;;33.85;39.56
60019;BME280;45870;42.528;26.740;2023-06-26T04:54:40;99127.63;;;30.82;44.26
60019;BME280;45870;42.528;26.740;2023-06-26T04:57:06;99129.78;;;31.98;42.95
60019;BME280;45870;42.528;26.740;2023-06-26T04:59:32;99121.34;;;30.55;45.17
60019;BME280;45870;42.528;26.740;2023-06-26T05:01:57;99129.03;;;33.12;40.49
60019;BME280;45870;42.528;26.740;2023-06-26T05:04:23;99125.31;;;30.91;44.37
60019;BME280;45870;42.528;26.740;2023-06-26T05:06:49;99129.03;;;29.08;47.84
60019;BME280;45870;42.528;26.740;2023-06-26T05:09:15;99066.31;;;30.15;45.65
60019;BME280;45870;42.528;26.740;2023-06-26T05:11:40;99088.34;;;29.68;47.34
60019;BME280;45870;42.528;26.740;2023-06-26T05:14:06;99132.38;;;29.89;45.99
60019;BME280;45870;42.528;26.740;2023-06-26T05:16:35;99133.41;;;30.37;45.25
60019;BME280;45870;42.528;26.740;2023-06-26T05:19:01;99148.53;;;29.31;48.08
60019;BME280;45870;42.528;26.740;2023-06-26T05:21:27;99135.38;;;30.66;44.58
60019;BME280;45870;42.528;26.740;2023-06-26T05:23:55;99151.69;;;28.87;48.64
60019;BME280;45870;42.528;26.740;2023-06-26T05:26:21;99154.44;;;29.52;47.72
60019;BME280;45870;42.528;26.740;2023-06-26T05:28:47;99157.50;;;27.39;53.08
60019;BME280;45870;42.528;26.740;2023-06-26T05:31:15;99148.34;;;28.40;51.70
60019;BME280;45870;42.528;26.740;2023-06-26T05:33:43;99130.38;;;26.86;54.42
60019;BME280;45870;42.528;26.740;2023-06-26T05:36:12;99162.03;;;27.31;53.65
60019;BME280;45870;42.528;26.740;2023-06-26T05:38:38;99157.47;;;27.86;52.75
60019;BME280;45870;42.528;26.740;2023-06-26T05:41:04;99171.19;;;28.14;52.18
60019;BME280;45870;42.528;26.740;2023-06-26T05:43:30;99172.06;;;27.36;53.50
60019;BME280;45870;42.528;26.740;2023-06-26T05:45:56;99175.75;;;26.81;54.99
60019;BME280;45870;42.528;26.740;2023-06-26T05:48:25;99145.69;;;27.26;53.79
60019;BME280;45870;42.528;26.740;2023-06-26T05:50:51;99181.41;;;26.45;55.26
60019;BME280;45870;42.528;26.740;2023-06-26T05:53:17;99175.25;;;26.91;54.19
60019;BME280;45870;42.528;26.740;2023-06-26T05:55:43;99177.72;;;25.89;55.45
60019;BME280;45870;42.528;26.740;2023-06-26T05:58:10;99180.84;;;25.51;56.91
60019;BME280;45870;42.528;26.740;2023-06-26T06:00:38;99153.75;;;25.93;56.02
60019;BME280;45870;42.528;26.740;2023-06-26T06:03:06;99186.38;;;24.94;58.70
60019;BME280;45870;42.528;26.740;2023-06-26T06:05:32;99191.91;;;25.06;59.05
60019;BME280;45870;42.528;26.740;2023-06-26T06:07:58;99187.09;;;22.85;65.36
60019;BME280;45870;42.528;26.740;2023-06-26T06:10:23;99180.09;;;23.05;64.71
60019;BME280;45870;42.528;26.740;2023-06-26T06:12:49;99176.97;;;23.15;64.67
60019;BME280;45870;42.528;26.740;2023-06-26T06:15:14;99184.78;;;23.05;64.53
60019;BME280;45870;42.528;26.740;2023-06-26T06:17:40;99070.34;;;21.71;67.41
60019;BME280;45870;42.528;26.740;2023-06-26T06:20:06;99178.03;;;22.76;65.85
60019;BME280;45870;42.528;26.740;2023-06-26T06:22:32;99175.13;;;22.56;67.69
60019;BME280;45870;42.528;26.740;2023-06-26T06:24:57;99044.00;;;21.45;68.48
60019;BME280;45870;42.528;26.740;2023-06-26T06:27:23;99193.28;;;22.74;67.75
60019;BME280;45870;42.528;26.740;2023-06-26T06:29:49;99200.72;;;22.82;67.74
60019;BME280;45870;42.528;26.740;2023-06-26T06:32:15;99210.75;;;22.86;67.61
60019;BME280;45870;42.528;26.740;2023-06-26T06:34:40;99201.66;;;22.17;69.67
60019;BME280;45870;42.528;26.740;2023-06-26T06:37:06;99188.25;;;22.41;68.39
60019;BME280;45870;42.528;26.740;2023-06-26T06:39:32;99210.88;;;22.99;66.56
60019;BME280;45870;42.528;26.740;2023-06-26T06:41:57;99202.72;;;23.19;65.83
60019;BME280;45870;42.528;26.740;2023-06-26T06:44:23;99226.13;;;22.70;67.84
60019;BME280;45870;42.528;26.740;2023-06-26T06:46:53;99226.94;;;22.62;67.85
60019;BME280;45870;42.528;26.740;2023-06-26T06:52:45;99197.16;;;22.64;67.40
60019;BME280;45870;42.528;26.740;2023-06-26T06:55:11;99194.06;;;22.14;70.40
60019;BME280;45870;42.528;26.740;2023-06-26T06:57:38;99210.41;;;22.19;70.45
60019;BME280;45870;42.528;26.740;2023-06-26T07:00:12;99218.50;;;22.93;68.23
60019;BME280;45870;42.528;26.740;2023-06-26T07:02:41;99215.50;;;23.15;66.86
60019;BME280;45870;42.528;26.740;2023-06-26T07:05:07;99230.97;;;22.65;68.98
60019;BME280;45870;42.528;26.740;2023-06-26T07:07:35;99227.41;;;22.90;68.10
60019;BME280;45870;42.528;26.740;2023-06-26T07:10:08;99228.25;;;24.13;64.09
60019;BME280;45870;42.528;26.740;2023-06-26T07:12:34;99237.78;;;23.86;64.69
60019;BME280;45870;42.528;26.740;2023-06-26T07:15:01;99226.97;;;23.34;66.19
60019;BME280;45870;42.528;26.740;2023-06-26T07:17:28;99237.53;;;23.32;67.41
60019;BME280;45870;42.528;26.740;2023-06-26T07:19:53;99242.69;;;23.80;65.26
60019;BME280;45870;42.528;26.740;2023-06-26T07:22:19;99228.53;;;25.15;60.61
60019;BME280;45870;42.528;26.740;2023-06-26T07:24:47;99253.78;;;25.25;60.54
60019;BME280;45870;42.528;26.740;2023-06-26T07:27:14;99250.06;;;24.26;62.73
60019;BME280;45870;42.528;26.740;2023-06-26T07:29:40;99245.06;;;24.82;61.17
60019;BME280;45870;42.528;26.740;2023-06-26T07:32:06;99207.41;;;24.86;60.18
60019;BME280;45870;42.528;26.740;2023-06-26T07:34:31;99254.94;;;25.37;60.07
60019;BME280;45870;42.528;26.740;2023-06-26T07:36:57;99254.59;;;25.05;60.61
60019;BME280;45870;42.528;26.740;2023-06-26T07:39:23;99247.75;;;26.17;58.40
60019;BME280;45870;42.528;26.740;2023-06-26T07:41:48;99249.59;;;25.76;58.93
60019;BME280;45870;42.528;26.740;2023-06-26T07:44:14;99247.81;;;25.35;60.15
60019;BME280;45870;42.528;26.740;2023-06-26T07:46:39;99252.97;;;25.37;59.98
60019;BME280;45870;42.528;26.740;2023-06-26T07:49:05;99244.72;;;25.49;60.81
60019;BME280;45870;42.528;26.740;2023-06-26T07:51:31;99213.63;;;24.95;61.31
60019;BME280;45870;42.528;26.740;2023-06-26T07:53:57;99247.91;;;24.94;61.87
60019;BME280;45870;42.528;26.740;2023-06-26T07:56:23;99256.06;;;24.91;61.88
60019;BME280;45870;42.528;26.740;2023-06-26T07:58:48;99262.63;;;25.19;61.42
60019;BME280;45870;42.528;26.740;2023-06-26T08:01:14;99263.59;;;24.81;62.57
60019;BME280;45870;42.528;26.740;2023-06-26T08:03:40;99271.72;;;24.78;62.56
60019;BME280;45870;42.528;26.740;2023-06-26T08:06:06;99271.63;;;26.21;58.85
60019;BME280;45870;42.528;26.740;2023-06-26T08:08:31;99273.97;;;24.43;62.60
60019;BME280;45870;42.528;26.740;2023-06-26T08:10:57;99271.34;;;24.67;62.70
60019;BME280;45870;42.528;26.740;2023-06-26T08:13:23;99283.53;;;25.08;61.80
60019;BME280;45870;42.528;26.740;2023-06-26T08:15:48;99282.44;;;25.00;61.93
60019;BME280;45870;42.528;26.740;2023-06-26T08:18:14;99281.03;;;24.53;62.49
60019;BME280;45870;42.528;26.740;2023-06-26T08:20:40;99278.19;;;26.05;58.67
60019;BME280;45870;42.528;26.740;2023-06-26T08:23:05;99274.88;;;25.09;61.25
60019;BME280;45870;42.528;26.740;2023-06-26T08:25:31;99287.94;;;25.54;60.02
60019;BME280;45870;42.528;26.740;2023-06-26T08:27:56;99285.91;;;25.42;60.43
60019;BME280;45870;42.528;26.740;2023-06-26T08:30:22;99285.47;;;25.07;61.36
60019;BME280;45870;42.528;26.740;2023-06-26T08:32:50;99285.47;;;25.07;61.88
60019;BME280;45870;42.528;26.740;2023-06-26T08:35:16;99277.22;;;25.19;60.23
60019;BME280;45870;42.528;26.740;2023-06-26T08:37:42;99276.91;;;25.78;60.00
60019;BME280;45870;42.528;26.740;2023-06-26T08:40:08;99278.41;;;26.36;59.29
60019;BME280;45870;42.528;26.740;2023-06-26T08:42:33;99276.66;;;24.72;62.35
60019;BME280;45870;42.528;26.740;2023-06-26T08:45:00;99268.50;;;25.74;58.82
60019;BME280;45870;42.528;26.740;2023-06-26T08:47:26;99282.78;;;26.89;57.31
60019;BME280;45870;42.528;26.740;2023-06-26T08:49:59;99254.78;;;25.66;57.79
60019;BME280;45870;42.528;26.740;2023-06-26T08:52:56;99287.66;;;26.28;57.10
60019;BME280;45870;42.528;26.740;2023-06-26T08:55:27;99292.13;;;26.08;58.43
60019;BME280;45870;42.528;26.740;2023-06-26T08:57:54;99287.34;;;24.95;61.64
60019;BME280;45870;42.528;26.740;2023-06-26T09:00:20;99292.00;;;25.35;61.02
60019;BME280;45870;42.528;26.740;2023-06-26T09:02:46;99288.81;;;26.27;59.46
60019;BME280;45870;42.528;26.740;2023-06-26T09:05:12;99297.19;;;26.06;59.16
60019;BME280;45870;42.528;26.740;2023-06-26T09:07:37;99282.84;;;26.65;56.26
60019;BME280;45870;42.528;26.740;2023-06-26T09:10:03;99298.47;;;26.09;57.59
60019;BME280;45870;42.528;26.740;2023-06-26T09:12:31;99293.31;;;26.31;57.49
60019;BME280;45870;42.528;26.740;2023-06-26T09:14:58;99299.06;;;26.91;55.80
60019;BME280;45870;42.528;26.740;2023-06-26T09:17:25;99308.25;;;26.43;57.99
60019;BME280;45870;42.528;26.740;2023-06-26T09:19:54;99303.47;;;27.35;54.13
60019;BME280;45870;42.528;26.740;2023-06-26T09:22:20;99271.44;;;26.54;55.50
60019;BME280;45870;42.528;26.740;2023-06-26T09:24:45;99309.69;;;27.16;55.25
60019;BME280;45870;42.528;26.740;2023-06-26T09:27:11;99310.03;;;27.86;54.83
60019;BME280;45870;42.528;26.740;2023-06-26T09:29:38;99315.28;;;26.16;58.28
60019;BME280;45870;42.528;26.740;2023-06-26T09:32:04;99316.78;;;26.01;58.48
60019;BME280;45870;42.528;26.740;2023-06-26T09:34:30;99328.94;;;26.21;57.25
60019;BME280;45870;42.528;26.740;2023-06-26T09:36:58;99323.22;;;24.74;61.50
60019;BME280;45870;42.528;26.740;2023-06-26T09:39:23;99325.06;;;25.11;59.70
60019;BME280;45870;42.528;26.740;2023-06-26T09:41:50;99320.97;;;26.31;57.40
60019;BME280;45870;42.528;26.740;2023-06-26T09:44:15;99324.44;;;28.07;54.09
60019;BME280;45870;42.528;26.740;2023-06-26T09:46:44;99319.03;;;27.99;53.46
60019;BME280;45870;42.528;26.740;2023-06-26T09:49:11;99327.88;;;27.29;54.85
60019;BME280;45870;42.528;26.740;2023-06-26T09:51:39;99325.78;;;28.13;53.63
60019;BME280;45870;42.528;26.740;2023-06-26T09:54:05;99334.25;;;27.73;54.71
60019;BME280;45870;42.528;26.740;2023-06-26T09:56:32;99327.00;;;27.69;55.79
60019;BME280;45870;42.528;26.740;2023-06-26T09:58:59;99326.06;;;27.49;55.12
60019;BME280;45870;42.528;26.740;2023-06-26T10:01:27;99335.84;;;26.27;58.02
60019;BME280;45870;42.528;26.740;2023-06-26T10:03:54;99333.63;;;26.32;58.86
60019;BME280;45870;42.528;26.740;2023-06-26T10:06:45;99329.47;;;26.02;60.09
60019;BME280;45870;42.528;26.740;2023-06-26T10:09:14;99318.25;;;26.84;57.29
60019;BME280;45870;42.528;26.740;2023-06-26T10:11:49;99325.31;;;25.96;61.13
60019;BME280;45870;42.528;26.740;2023-06-26T10:14:17;99320.91;;;26.07;60.60
60019;BME280;45870;42.528;26.740;2023-06-26T10:16:46;99275.19;;;26.22;58.43
60019;BME280;45870;42.528;26.740;2023-06-26T10:19:14;99318.44;;;26.26;60.17
60019;BME280;45870;42.528;26.740;2023-06-26T10:21:42;99310.09;;;27.03;57.93
60019;BME280;45870;42.528;26.740;2023-06-26T10:24:10;99272.63;;;26.41;58.08
60019;BME280;45870;42.528;26.740;2023-06-26T10:26:42;99315.56;;;26.35;59.37
60019;BME280;45870;42.528;26.740;2023-06-26T10:29:10;99321.00;;;27.51;56.94
60019;BME280;45870;42.528;26.740;2023-06-26T10:31:43;99207.88;;;26.18;57.44
60019;BME280;45870;42.528;26.740;2023-06-26T10:34:11;99303.41;;;27.75;54.58
60019;BME280;45870;42.528;26.740;2023-06-26T10:36:37;99303.53;;;26.07;59.98
60019;BME280;45870;42.528;26.740;2023-06-26T10:39:05;99313.97;;;26.86;56.15
60019;BME280;45870;42.528;26.740;2023-06-26T10:41:37;99307.34;;;26.26;59.79
60019;BME280;45870;42.528;26.740;2023-06-26T10:46:51;99294.22;;;27.43;56.60
60019;BME280;45870;42.528;26.740;2023-06-26T10:49:25;99293.41;;;27.43;54.99
60019;BME280;45870;42.528;26.740;2023-06-26T10:51:53;99285.88;;;27.43;55.33
60019;BME280;45870;42.528;26.740;2023-06-26T10:54:21;99275.19;;;26.86;56.87
60019;BME280;45870;42.528;26.740;2023-06-26T10:56:50;99267.28;;;27.44;55.12
60019;BME280;45870;42.528;26.740;2023-06-26T10:59:23;99284.13;;;28.29;54.34
60019;BME280;45870;42.528;26.740;2023-06-26T11:02:04;99283.28;;;28.44;50.70
60019;BME280;45870;42.528;26.740;2023-06-26T11:04:50;99276.34;;;29.08;50.03
60019;BME280;45870;42.528;26.740;2023-06-26T11:07:26;99279.03;;;29.04;50.36
60019;BME280;45870;42.528;26.740;2023-06-26T11:12:42;99268.38;;;28.87;49.77
60019;BME280;45870;42.528;26.740;2023-06-26T11:15:13;99270.19;;;27.94;51.96
60019;BME280;45870;42.528;26.740;2023-06-26T11:17:40;99263.31;;;27.72;51.17
60019;BME280;45870;42.528;26.740;2023-06-26T11:20:07;99255.00;;;28.39;49.84
60019;BME280;45870;42.528;26.740;2023-06-26T11:22:38;99268.56;;;29.36;48.62
60019;BME280;45870;42.528;26.740;2023-06-26T11:25:05;99261.69;;;30.77;47.89
60019;BME280;45870;42.528;26.740;2023-06-26T11:27:39;99265.50;;;28.29;49.87
60019;BME280;45870;42.528;26.740;2023-06-26T11:30:06;99251.50;;;27.75;50.38
60019;BME280;45870;42.528;26.740;2023-06-26T11:32:32;99225.91;;;29.74;44.61
60019;BME280;45870;42.528;26.740;2023-06-26T11:34:59;99256.97;;;29.31;46.79
60019;BME280;45870;42.528;26.740;2023-06-26T11:37:25;99259.06;;;29.37;47.39
60019;BME280;45870;42.528;26.740;2023-06-26T11:39:51;99248.81;;;27.48;50.14
60019;BME280;45870;42.528;26.740;2023-06-26T11:42:20;99230.44;;;27.27;50.89
60019;BME280;45870;42.528;26.740;2023-06-26T11:44:46;99234.69;;;28.69;49.22
60019;BME280;45870;42.528;26.740;2023-06-26T11:47:20;99259.44;;;28.97;47.36
60019;BME280;45870;42.528;26.740;2023-06-26T11:49:47;99251.38;;;28.19;49.71
60019;BME280;45870;42.528;26.740;2023-06-26T11:52:14;99247.03;;;28.37;47.71
60019;BME280;45870;42.528;26.740;2023-06-26T11:54:42;99257.16;;;29.22;45.06
60019;BME280;45870;42.528;26.740;2023-06-26T11:57:08;99255.03;;;29.15;46.45
60019;BME280;45870;42.528;26.740;2023-06-26T11:59:35;99262.06;;;29.29;45.29
60019;BME280;45870;42.528;26.740;2023-06-26T12:02:05;99259.03;;;31.54;42.79
60019;BME280;45870;42.528;26.740;2023-06-26T12:04:32;99257.28;;;29.48;45.50
60019;BME280;45870;42.528;26.740;2023-06-26T12:06:59;99256.03;;;29.91;43.40
60019;BME280;45870;42.528;26.740;2023-06-26T12:09:26;99252.88;;;30.19;43.00
60019;BME280;45870;42.528;26.740;2023-06-26T12:11:53;99249.06;;;30.87;42.69
60019;BME280;45870;42.528;26.740;2023-06-26T12:14:20;99241.97;;;31.26;39.46
60019;BME280;45870;42.528;26.740;2023-06-26T12:16:47;99244.97;;;31.47;39.64
60019;BME280;45870;42.528;26.740;2023-06-26T12:19:13;99217.84;;;31.44;39.35
60019;BME280;45870;42.528;26.740;2023-06-26T12:24:17;99242.94;;;30.74;41.52
60019;BME280;45870;42.528;26.740;2023-06-26T12:26:51;99240.66;;;31.97;37.87
60019;BME280;45870;42.528;26.740;2023-06-26T12:29:19;99230.66;;;32.54;38.50
60019;BME280;45870;42.528;26.740;2023-06-26T12:31:50;99214.56;;;31.35;39.11
60019;BME280;45870;42.528;26.740;2023-06-26T12:34:27;99212.09;;;33.04;38.21
60019;BME280;45870;42.528;26.740;2023-06-26T12:36:53;99237.03;;;31.93;37.54
60019;BME280;45870;42.528;26.740;2023-06-26T12:39:20;99243.63;;;32.98;36.00
60019;BME280;45870;42.528;26.740;2023-06-26T12:41:47;99221.56;;;32.64;36.86
60019;BME280;45870;42.528;26.740;2023-06-26T12:44:17;99244.34;;;31.24;39.37
60019;BME280;45870;42.528;26.740;2023-06-26T12:46:43;99217.38;;;31.79;36.77
60019;BME280;45870;42.528;26.740;2023-06-26T12:49:12;99245.66;;;31.78;39.11
60019;BME280;45870;42.528;26.740;2023-06-26T12:51:38;99247.56;;;32.14;39.04
60019;BME280;45870;42.528;26.740;2023-06-26T12:54:05;99239.13;;;31.19;39.25
60019;BME280;45870;42.528;26.740;2023-06-26T12:56:31;99245.72;;;32.36;36.97
60019;BME280;45870;42.528;26.740;2023-06-26T12:58:56;99245.34;;;31.46;38.85
60019;BME280;45870;42.528;26.740;2023-06-26T13:01:22;99245.28;;;31.39;37.98
60019;BME280;45870;42.528;26.740;2023-06-26T13:03:50;99241.75;;;33.30;35.30